createdAt,value
2023-08-09T00:02:47.000Z,1.00
2023-08-09T00:05:49.714Z,0.57
2023-08-09T00:08:52.150Z,1.02
2023-08-09T00:11:54.628Z,0.60
2023-08-09T00:14:57.506Z,0.80
2023-08-09T00:18:00.159Z,0.63
2023-08-09T00:21:02.818Z,1.17
2023-08-09T00:24:05.600Z,0.70
2023-08-09T00:27:08.169Z,0.67
2023-08-09T00:30:15.225Z,1.50
2023-08-09T00:33:17.759Z,1.08
2023-08-09T00:36:20.937Z,0.90
2023-08-09T00:39:23.487Z,1.10
2023-08-09T00:42:26.069Z,0.50
2023-08-09T00:45:28.797Z,0.93
2023-08-09T00:48:31.417Z,0.57
2023-08-09T00:51:34.102Z,4.25
2023-08-09T00:54:39.627Z,0.85
2023-08-09T00:57:42.277Z,0.90
2023-08-09T01:00:44.768Z,0.60
2023-08-09T01:03:48.384Z,0.90
2023-08-09T01:07:02.554Z,0.80
2023-08-09T01:10:14.374Z,1.27
2023-08-09T01:13:20.564Z,0.67
2023-08-09T01:16:26.221Z,0.65
2023-08-09T01:19:46.155Z,0.82
2023-08-09T01:23:21.745Z,0.70
2023-08-09T01:26:25.640Z,1.08
2023-08-09T01:29:28.056Z,0.60
2023-08-09T01:32:30.750Z,0.63
2023-08-09T01:35:39.452Z,0.60
2023-08-09T01:38:56.082Z,1.10
2023-08-09T01:41:59.833Z,0.98
2023-08-09T01:45:04.220Z,0.57
2023-08-09T01:48:09.252Z,0.68
2023-08-09T01:51:13.375Z,0.77
2023-08-09T01:54:18.768Z,0.52
2023-08-09T01:57:21.992Z,0.70
2023-08-09T02:00:24.676Z,0.53
2023-08-09T02:03:28.350Z,0.50
2023-08-09T02:06:34.771Z,0.90
2023-08-09T02:09:37.323Z,0.52
2023-08-09T02:12:40.986Z,0.50
2023-08-09T02:15:43.492Z,0.47
2023-08-09T02:18:51.522Z,0.70
2023-08-09T02:21:53.962Z,0.68
2023-08-09T02:24:56.431Z,4.82
2023-08-09T02:27:59.027Z,0.90
2023-08-09T02:31:01.641Z,0.80
2023-08-09T02:34:04.177Z,0.60
2023-08-09T02:37:06.832Z,0.85
2023-08-09T02:40:12.357Z,0.60
2023-08-09T02:43:15.285Z,0.70
2023-08-09T02:46:19.249Z,0.50
2023-08-09T02:49:22.209Z,0.60
2023-08-09T02:52:24.784Z,0.80
2023-08-09T02:55:27.498Z,0.65
2023-08-09T02:58:29.991Z,0.93
2023-08-09T03:01:32.757Z,0.83
2023-08-09T03:04:35.966Z,0.80
2023-08-09T03:07:38.702Z,0.60
2023-08-09T03:10:41.505Z,0.57
2023-08-09T03:13:44.180Z,0.90
2023-08-09T03:16:46.720Z,0.60
2023-08-09T03:19:50.372Z,0.50
2023-08-09T03:22:53.107Z,0.50
2023-08-09T03:25:55.702Z,0.60
2023-08-09T03:28:59.607Z,0.70
2023-08-09T03:32:02.053Z,0.60
2023-08-09T03:35:06.478Z,0.57
2023-08-09T03:38:09.170Z,0.85
2023-08-09T03:41:11.670Z,0.73
2023-08-09T03:44:14.787Z,1.00
2023-08-09T03:47:17.505Z,0.90
2023-08-09T03:50:20.104Z,1.27
2023-08-09T03:53:22.874Z,1.23
2023-08-09T03:56:26.052Z,0.75
2023-08-09T03:59:28.583Z,0.43
2023-08-09T04:02:31.127Z,0.50
2023-08-09T04:05:35.890Z,0.63
2023-08-09T04:08:38.461Z,0.70
2023-08-09T04:11:40.958Z,0.93
2023-08-09T04:14:44.254Z,0.77
2023-08-09T04:17:49.641Z,0.70
2023-08-09T04:20:52.228Z,1.00
2023-08-09T04:23:55.046Z,0.60
2023-08-09T04:26:57.496Z,0.70
2023-08-09T04:30:01.794Z,1.23
2023-08-09T04:33:05.154Z,1.10
2023-08-09T04:36:07.809Z,0.73
2023-08-09T04:39:10.525Z,0.90
2023-08-09T04:42:13.105Z,0.50
2023-08-09T04:45:16.217Z,1.05
2023-08-09T04:48:18.878Z,0.60
2023-08-09T04:51:21.361Z,0.60
2023-08-09T04:54:23.878Z,0.60
2023-08-09T04:57:26.384Z,0.82
2023-08-09T05:00:29.030Z,1.05
2023-08-09T05:03:32.129Z,0.57
2023-08-09T05:06:34.697Z,0.68
2023-08-09T05:09:37.200Z,0.68
2023-08-09T05:12:39.822Z,1.48
2023-08-09T05:15:42.341Z,1.20
2023-08-09T05:18:44.891Z,1.63
2023-08-09T05:21:48.094Z,0.95
2023-08-09T05:24:50.698Z,0.65
2023-08-09T05:27:54.410Z,0.88
2023-08-09T05:30:56.874Z,1.00
2023-08-09T05:33:59.741Z,0.80
2023-08-09T05:37:02.502Z,0.80
2023-08-09T05:40:13.929Z,1.23
2023-08-09T05:43:16.437Z,1.30
2023-08-09T05:46:18.974Z,1.05
2023-08-09T05:49:21.775Z,1.63
2023-08-09T05:52:24.209Z,0.98
2023-08-09T05:55:26.773Z,0.65
2023-08-09T05:58:29.642Z,0.90
2023-08-09T06:01:32.596Z,1.10
2023-08-09T06:04:35.301Z,0.77
2023-08-09T06:07:38.081Z,0.88
2023-08-09T06:10:40.633Z,1.10
2023-08-09T06:13:43.177Z,1.30
2023-08-09T06:16:48.773Z,0.90
2023-08-09T06:19:51.304Z,1.50
2023-08-09T06:22:53.781Z,1.42
2023-08-09T06:25:56.290Z,0.82
2023-08-09T06:28:59.326Z,1.23
2023-08-09T06:32:02.246Z,1.02
2023-08-09T06:35:05.963Z,1.20
2023-08-09T06:38:15.080Z,0.95
2023-08-09T06:41:18.137Z,1.30
2023-08-09T06:44:20.735Z,1.23
2023-08-09T06:47:23.235Z,0.95
2023-08-09T06:50:28.065Z,1.20
2023-08-09T06:53:30.655Z,0.95
2023-08-09T06:56:33.138Z,1.20
2023-08-09T06:59:35.688Z,1.48
2023-08-09T07:02:38.262Z,1.20
2023-08-09T07:05:42.438Z,1.13
2023-08-09T07:08:44.944Z,1.88
2023-08-09T07:11:47.661Z,1.27
2023-08-09T07:14:50.215Z,1.20
2023-08-09T07:17:52.895Z,1.00
2023-08-09T07:20:55.434Z,1.10
2023-08-09T07:23:58.781Z,1.67
2023-08-09T07:27:01.405Z,1.77
2023-08-09T07:30:04.219Z,1.20
2023-08-09T07:33:06.773Z,1.10
2023-08-09T07:36:09.244Z,3.57
2023-08-09T07:39:11.707Z,1.60
2023-08-09T07:42:14.246Z,1.20
2023-08-09T07:45:16.771Z,0.98
2023-08-09T07:48:19.208Z,1.10
2023-08-09T07:51:22.730Z,1.60
2023-08-09T07:54:25.214Z,1.30
2023-08-09T07:57:27.762Z,1.52
2023-08-09T08:00:38.952Z,1.55
2023-08-09T08:03:49.806Z,1.63
2023-08-09T08:06:52.311Z,1.50
2023-08-09T08:09:54.842Z,1.50
2023-08-09T08:12:57.294Z,1.70
2023-08-09T08:16:00.569Z,1.95
2023-08-09T08:19:03.887Z,1.50
2023-08-09T08:22:08.277Z,1.80
2023-08-09T08:25:12.107Z,1.50
2023-08-09T08:28:14.583Z,1.30
2023-08-09T08:31:20.830Z,1.83
2023-08-09T08:34:23.719Z,1.42
2023-08-09T08:37:26.227Z,1.40
2023-08-09T08:40:29.297Z,1.50
2023-08-09T08:43:32.479Z,1.95
2023-08-09T08:46:35.561Z,1.80
2023-08-09T08:49:44.618Z,1.83
2023-08-09T08:52:49.149Z,1.70
2023-08-09T08:55:52.604Z,1.63
2023-08-09T08:58:55.470Z,1.88
2023-08-09T09:01:58.971Z,1.45
2023-08-09T09:05:01.603Z,2.22
2023-08-09T09:08:04.587Z,1.80
2023-08-09T09:11:27.439Z,1.90
2023-08-09T09:14:29.913Z,1.80
2023-08-09T09:17:41.272Z,1.50
2023-08-09T09:20:44.075Z,2.08
2023-08-09T09:23:46.828Z,1.40
2023-08-09T09:26:54.749Z,1.80
2023-08-09T09:30:02.850Z,1.40
2023-08-09T09:33:06.264Z,1.92
2023-08-09T09:36:11.888Z,1.60
2023-08-09T09:39:14.807Z,1.50
2023-08-09T09:42:17.350Z,2.13
2023-08-09T09:45:26.074Z,1.70
2023-08-09T09:48:30.847Z,1.60
2023-08-09T09:51:35.914Z,1.67
2023-08-09T09:54:39.568Z,1.97
2023-08-09T09:57:42.219Z,1.95
2023-08-09T10:00:49.154Z,1.88
2023-08-09T10:04:11.612Z,1.55
2023-08-09T10:07:14.687Z,1.67
2023-08-09T10:10:18.464Z,1.77
2023-08-09T10:13:25.567Z,1.55
2023-08-09T10:16:32.177Z,1.58
2023-08-09T10:19:35.049Z,2.00
2023-08-09T10:22:42.718Z,1.65
2023-08-09T10:25:47.408Z,2.07
2023-08-09T10:28:51.084Z,1.60
2023-08-09T10:32:01.631Z,1.80
2023-08-09T10:35:05.370Z,1.92
2023-08-09T10:38:08.891Z,1.92
2023-08-09T10:41:13.117Z,3.83
2023-08-09T10:44:18.358Z,1.85
2023-08-09T10:47:26.314Z,2.10
2023-08-09T10:50:40.828Z,1.63
2023-08-09T10:54:06.892Z,2.10
2023-08-09T10:57:10.999Z,1.70
2023-08-09T11:00:14.288Z,1.80
2023-08-09T11:03:18.623Z,2.00
2023-08-09T11:06:39.511Z,1.70
2023-08-09T11:09:45.680Z,2.30
2023-08-09T11:12:49.414Z,2.07
2023-08-09T11:15:52.106Z,1.90
2023-08-09T11:19:28.402Z,2.40
2023-08-09T11:22:36.793Z,2.70
2023-08-09T11:25:39.375Z,2.20
2023-08-09T11:28:42.405Z,1.90
2023-08-09T11:31:47.835Z,3.08
2023-08-09T11:34:50.388Z,2.35
2023-08-09T11:37:53.700Z,2.25
2023-08-09T11:40:56.221Z,2.20
2023-08-09T11:44:04.779Z,2.07
2023-08-09T11:47:08.495Z,2.00
2023-08-09T11:50:24.982Z,2.53
2023-08-09T11:53:27.643Z,2.13
2023-08-09T11:56:34.641Z,1.83
2023-08-09T11:59:40.802Z,2.00
2023-08-09T12:02:43.297Z,2.15
2023-08-09T12:05:53.891Z,2.53
2023-08-09T12:08:58.407Z,1.88
2023-08-09T12:12:35.826Z,2.55
2023-08-09T12:15:38.347Z,1.63
2023-08-09T12:18:40.896Z,1.90
2023-08-09T12:21:43.350Z,2.20
2023-08-09T12:24:45.847Z,2.17
2023-08-09T12:27:48.308Z,2.08
2023-08-09T12:30:50.811Z,2.00
2023-08-09T12:33:54.255Z,2.10
2023-08-09T12:36:57.995Z,2.00
2023-08-09T12:40:00.621Z,3.00
2023-08-09T12:43:03.197Z,2.45
2023-08-09T12:46:05.804Z,2.37
2023-08-09T12:49:08.425Z,1.90
2023-08-09T12:52:11.020Z,1.90
2023-08-09T12:55:14.109Z,1.70
2023-08-09T12:58:17.962Z,1.70
2023-08-09T13:01:20.476Z,1.80
2023-08-09T13:04:25.475Z,2.40
2023-08-09T13:07:30.954Z,2.90
2023-08-09T13:10:33.658Z,2.80
2023-08-09T13:13:36.106Z,2.42
2023-08-09T13:16:38.578Z,2.80
2023-08-09T13:19:41.307Z,2.70
2023-08-09T13:22:44.198Z,3.13
2023-08-09T13:25:46.794Z,3.42
2023-08-09T13:28:51.228Z,3.85
2023-08-09T13:31:53.915Z,3.23
2023-08-09T13:34:56.431Z,3.72
2023-08-09T13:37:59.734Z,4.50
2023-08-09T13:41:03.680Z,4.22
2023-08-09T13:44:06.733Z,4.32
2023-08-09T13:47:09.203Z,4.83
2023-08-09T13:50:12.012Z,4.82
2023-08-09T13:53:15.944Z,4.55
2023-08-09T13:56:18.777Z,3.67
2023-08-09T13:59:21.266Z,3.33
2023-08-09T14:02:23.786Z,3.30
2023-08-09T14:05:26.301Z,2.67
2023-08-09T14:08:29.099Z,3.58
2023-08-09T14:11:31.638Z,3.90
2023-08-09T14:14:34.110Z,3.72
2023-08-09T14:17:36.692Z,3.20
2023-08-09T14:20:39.339Z,3.63
2023-08-09T14:23:41.776Z,3.05
2023-08-09T14:26:44.196Z,3.03
2023-08-09T14:29:46.580Z,2.50
2023-08-09T14:32:49.144Z,2.43
2023-08-09T14:35:51.605Z,2.30
2023-08-09T14:38:54.492Z,2.45
2023-08-09T14:41:57.170Z,2.25
2023-08-09T14:44:59.687Z,2.70
2023-08-09T14:48:02.167Z,1.80
2023-08-09T14:51:04.779Z,2.72
2023-08-09T14:54:07.573Z,2.40
2023-08-09T14:57:10.124Z,1.52
2023-08-09T15:00:14.852Z,1.75
2023-08-09T15:03:17.541Z,2.27
2023-08-09T15:06:20.102Z,1.85
2023-08-09T15:09:22.652Z,1.92
2023-08-09T15:12:25.390Z,1.85
2023-08-09T15:15:27.909Z,1.40
2023-08-09T15:18:30.415Z,1.40
2023-08-09T15:21:33.023Z,2.63
2023-08-09T15:24:35.477Z,1.50
2023-08-09T15:27:37.893Z,2.50
2023-08-09T15:30:40.429Z,2.03
2023-08-09T15:33:43.079Z,1.87
2023-08-09T15:36:45.710Z,1.50
2023-08-09T15:39:48.354Z,2.00
2023-08-09T15:42:51.098Z,1.40
2023-08-09T15:45:53.983Z,1.90
2023-08-09T15:48:58.749Z,1.83
2023-08-09T15:52:01.323Z,2.03
2023-08-09T15:55:03.986Z,1.55
2023-08-09T15:58:06.521Z,1.65
2023-08-09T16:01:13.666Z,1.50
2023-08-09T16:04:16.429Z,1.60
2023-08-09T16:07:19.211Z,1.85
2023-08-09T16:10:23.108Z,1.52
2023-08-09T16:13:25.780Z,1.45
2023-08-09T16:16:34.257Z,1.60
2023-08-09T16:19:37.151Z,1.40
2023-08-09T16:22:40.671Z,1.80
2023-08-09T16:25:43.096Z,1.40
2023-08-09T16:28:45.595Z,1.60
2023-08-09T16:31:48.113Z,1.63
2023-08-09T16:34:50.697Z,1.47
2023-08-09T16:37:53.425Z,1.50
2023-08-09T16:40:55.947Z,1.50
2023-08-09T16:43:58.403Z,1.40
2023-08-09T16:47:01.636Z,1.65
2023-08-09T16:50:06.199Z,1.90
2023-08-09T16:53:08.864Z,1.30
2023-08-09T16:56:12.452Z,1.65
2023-08-09T16:59:15.068Z,1.95
2023-08-09T17:02:17.488Z,3.85
2023-08-09T17:05:20.136Z,2.03
2023-08-09T17:08:22.599Z,1.60
2023-08-09T17:11:25.109Z,1.55
2023-08-09T17:14:27.564Z,1.27
2023-08-09T17:17:31.275Z,1.30
2023-08-09T17:20:36.087Z,1.20
2023-08-09T17:23:40.095Z,1.55
2023-08-09T17:26:44.215Z,1.50
2023-08-09T17:29:46.783Z,1.73
2023-08-09T17:32:49.267Z,1.55
2023-08-09T17:35:51.818Z,2.20
2023-08-09T17:38:54.347Z,2.20
2023-08-09T17:41:56.906Z,1.98
2023-08-09T17:45:00.884Z,1.10
2023-08-09T17:48:03.548Z,1.40
2023-08-09T17:51:06.876Z,1.60
2023-08-09T17:54:09.383Z,1.70
2023-08-09T17:57:11.905Z,1.48
2023-08-09T18:00:17.810Z,1.42
2023-08-09T18:03:20.347Z,1.83
2023-08-09T18:06:23.066Z,1.40
2023-08-09T18:09:25.544Z,1.00
2023-08-09T18:12:28.467Z,1.27
2023-08-09T18:15:30.965Z,1.50
2023-08-09T18:18:33.545Z,1.20
2023-08-09T18:21:36.013Z,1.50
2023-08-09T18:24:38.448Z,1.25
2023-08-09T18:27:41.420Z,1.25
2023-08-09T18:30:43.930Z,1.20
2023-08-09T18:33:46.416Z,1.30
2023-08-09T18:36:48.940Z,1.20
2023-08-09T18:39:51.560Z,1.85
2023-08-09T18:42:54.769Z,1.42
2023-08-09T18:45:58.098Z,2.97
2023-08-09T18:49:00.714Z,1.52
2023-08-09T18:52:04.785Z,1.30
2023-08-09T18:55:09.220Z,1.67
2023-08-09T18:58:11.808Z,1.13
2023-08-09T19:01:14.350Z,1.88
2023-08-09T19:04:17.425Z,1.00
2023-08-09T19:07:19.898Z,1.13
2023-08-09T19:10:22.447Z,1.65
2023-08-09T19:13:25.003Z,1.08
2023-08-09T19:16:28.491Z,1.23
2023-08-09T19:19:31.095Z,1.45
2023-08-09T19:22:35.120Z,1.20
2023-08-09T19:25:37.790Z,1.25
2023-08-09T19:28:40.757Z,1.45
2023-08-09T19:31:43.514Z,0.93
2023-08-09T19:34:47.185Z,1.10
2023-08-09T19:37:49.882Z,1.00
2023-08-09T19:40:52.444Z,1.35
2023-08-09T19:43:56.219Z,1.25
2023-08-09T19:47:02.143Z,1.40
2023-08-09T19:50:05.758Z,1.10
2023-08-09T19:53:10.025Z,2.53
2023-08-09T19:56:12.784Z,1.08
2023-08-09T19:59:15.319Z,1.15
2023-08-09T20:02:18.159Z,1.08
2023-08-09T20:05:21.943Z,1.02
2023-08-09T20:08:24.427Z,1.07
2023-08-09T20:11:26.996Z,1.00
2023-08-09T20:14:29.411Z,2.10
2023-08-09T20:17:32.682Z,2.33
2023-08-09T20:20:38.478Z,1.35
2023-08-09T20:23:40.867Z,1.00
2023-08-09T20:26:43.384Z,1.10
2023-08-09T20:29:45.818Z,1.25
2023-08-09T20:32:48.348Z,1.60
2023-08-09T20:35:50.857Z,1.48
2023-08-09T20:38:53.593Z,1.03
2023-08-09T20:41:56.074Z,1.20
2023-08-09T20:44:58.593Z,2.33
2023-08-09T20:48:01.136Z,1.42
2023-08-09T20:51:03.771Z,1.40
2023-08-09T20:54:06.464Z,1.23
2023-08-09T20:57:09.005Z,1.00
2023-08-09T21:00:15.021Z,1.10
2023-08-09T21:03:18.644Z,1.00
2023-08-09T21:06:22.127Z,2.30
2023-08-09T21:09:24.723Z,0.83
2023-08-09T21:12:27.221Z,2.03
2023-08-09T21:15:31.354Z,1.15
2023-08-09T21:18:36.387Z,0.80
2023-08-09T21:21:39.632Z,1.10
2023-08-09T21:24:42.184Z,1.30
2023-08-09T21:27:44.617Z,1.17
2023-08-09T21:30:47.480Z,1.35
2023-08-09T21:33:49.999Z,2.08
2023-08-09T21:36:52.426Z,1.02
2023-08-09T21:39:54.923Z,1.20
2023-08-09T21:42:57.307Z,1.25
2023-08-09T21:45:59.833Z,1.00
2023-08-09T21:49:02.377Z,1.40
2023-08-09T21:52:05.433Z,1.30
2023-08-09T21:55:08.449Z,2.90
2023-08-09T21:58:11.525Z,0.90
2023-08-09T22:01:14.056Z,0.90
2023-08-09T22:04:16.655Z,1.10
2023-08-09T22:07:19.228Z,1.10
2023-08-09T22:10:21.674Z,1.10
2023-08-09T22:13:24.607Z,0.95
2023-08-09T22:16:27.692Z,1.50
2023-08-09T22:19:30.248Z,1.52
2023-08-09T22:22:34.134Z,0.95
2023-08-09T22:25:36.692Z,1.17
2023-08-09T22:28:39.230Z,1.73
2023-08-09T22:31:41.623Z,1.10
2023-08-09T22:34:45.752Z,1.10
2023-08-09T22:37:48.646Z,1.45
2023-08-09T22:40:51.437Z,2.03
2023-08-09T22:43:54.114Z,1.20
2023-08-09T22:46:56.779Z,1.00
2023-08-09T22:49:59.217Z,1.17
2023-08-09T22:53:01.701Z,3.35
2023-08-09T22:56:04.298Z,1.13
2023-08-09T22:59:07.324Z,0.70
2023-08-09T23:02:09.868Z,1.30
2023-08-09T23:05:12.427Z,0.85
2023-08-09T23:08:14.879Z,1.30
2023-08-09T23:11:17.545Z,1.33
2023-08-09T23:14:20.042Z,1.17
2023-08-09T23:17:22.658Z,2.03
2023-08-09T23:20:28.549Z,0.80
2023-08-09T23:23:31.397Z,0.88
2023-08-09T23:26:33.905Z,0.93
2023-08-09T23:29:36.409Z,1.13
2023-08-09T23:32:38.987Z,1.73
2023-08-09T23:35:41.494Z,1.00
2023-08-09T23:38:43.948Z,1.25
2023-08-09T23:41:46.818Z,1.17
2023-08-09T23:44:49.654Z,1.08
2023-08-09T23:47:53.266Z,1.00
2023-08-09T23:50:56.068Z,0.90
2023-08-09T23:54:01.656Z,1.00
2023-08-09T23:57:05.298Z,1.27
